sensor_id;sensor_type;location;lat;lon;timestamp;P1;durP1;ratioP1;P2;durP2;ratioP2
12601;SDS011;30282;16.436;99.370;2023-05-07T00:00:07;24.93;;;13.10;;
12601;SDS011;30282;16.436;99.370;2023-05-07T00:02:37;23.53;;;12.70;;
12601;SDS011;30282;16.436;99.370;2023-05-07T00:05:06;20.03;;;13.87;;
12601;SDS011;30282;16.436;99.370;2023-05-07T00:07:36;22.30;;;13.13;;
12601;SDS011;30282;16.436;99.370;2023-05-07T00:10:08;21.70;;;14.07;;
12601;SDS011;30282;16.436;99.370;2023-05-07T00:12:38;23.40;;;13.40;;
12601;SDS011;30282;16.436;99.370;2023-05-07T00:15:08;24.13;;;13.33;;
12601;SDS011;30282;16.436;99.370;2023-05-07T00:17:38;21.93;;;11.60;;
12601;SDS011;30282;16.436;99.370;2023-05-07T00:20:07;20.40;;;12.67;;
12601;SDS011;30282;16.436;99.370;2023-05-07T00:22:37;18.20;;;12.63;;
12601;SDS011;30282;16.436;99.370;2023-05-07T00:25:09;16.53;;;12.67;;
12601;SDS011;30282;16.436;99.370;2023-05-07T00:27:41;19.43;;;11.67;;
12601;SDS011;30282;16.436;99.370;2023-05-07T00:30:11;16.57;;;11.80;;
12601;SDS011;30282;16.436;99.370;2023-05-07T00:32:41;16.83;;;11.50;;
12601;SDS011;30282;16.436;99.370;2023-05-07T00:35:11;18.47;;;11.87;;
12601;SDS011;30282;16.436;99.370;2023-05-07T00:37:43;21.67;;;12.40;;
12601;SDS011;30282;16.436;99.370;2023-05-07T00:40:14;19.90;;;12.33;;
12601;SDS011;30282;16.436;99.370;2023-05-07T00:42:43;19.93;;;12.30;;
12601;SDS011;30282;16.436;99.370;2023-05-07T00:45:14;16.23;;;11.80;;
12601;SDS011;30282;16.436;99.370;2023-05-07T00:47:44;14.03;;;11.50;;
12601;SDS011;30282;16.436;99.370;2023-05-07T00:50:13;28.10;;;13.53;;
12601;SDS011;30282;16.436;99.370;2023-05-07T00:52:43;25.47;;;13.70;;
12601;SDS011;30282;16.436;99.370;2023-05-07T00:55:14;14.77;;;11.20;;
12601;SDS011;30282;16.436;99.370;2023-05-07T00:57:43;15.10;;;10.87;;
12601;SDS011;30282;16.436;99.370;2023-05-07T01:00:14;20.57;;;11.33;;
12601;SDS011;30282;16.436;99.370;2023-05-07T01:02:43;16.97;;;12.37;;
12601;SDS011;30282;16.436;99.370;2023-05-07T01:05:14;12.50;;;11.03;;
12601;SDS011;30282;16.436;99.370;2023-05-07T01:07:47;17.80;;;11.40;;
12601;SDS011;30282;16.436;99.370;2023-05-07T01:10:19;17.47;;;12.47;;
12601;SDS011;30282;16.436;99.370;2023-05-07T01:12:50;18.63;;;11.67;;
12601;SDS011;30282;16.436;99.370;2023-05-07T01:15:19;16.13;;;13.20;;
12601;SDS011;30282;16.436;99.370;2023-05-07T01:17:49;18.63;;;12.53;;
12601;SDS011;30282;16.436;99.370;2023-05-07T01:20:18;20.97;;;12.00;;
12601;SDS011;30282;16.436;99.370;2023-05-07T01:22:50;36.60;;;12.73;;
12601;SDS011;30282;16.436;99.370;2023-05-07T01:25:20;30.93;;;13.57;;
12601;SDS011;30282;16.436;99.370;2023-05-07T01:27:49;22.53;;;12.50;;
12601;SDS011;30282;16.436;99.370;2023-05-07T01:30:19;18.63;;;11.80;;
12601;SDS011;30282;16.436;99.370;2023-05-07T01:32:51;18.97;;;11.23;;
12601;SDS011;30282;16.436;99.370;2023-05-07T01:35:24;19.03;;;12.80;;
12601;SDS011;30282;16.436;99.370;2023-05-07T01:37:58;17.37;;;11.40;;
12601;SDS011;30282;16.436;99.370;2023-05-07T01:40:30;23.33;;;11.87;;
12601;SDS011;30282;16.436;99.370;2023-05-07T01:42:59;14.20;;;11.73;;
12601;SDS011;30282;16.436;99.370;2023-05-07T01:45:30;19.97;;;12.90;;
12601;SDS011;30282;16.436;99.370;2023-05-07T01:48:00;12.00;;;10.70;;
12601;SDS011;30282;16.436;99.370;2023-05-07T01:50:30;19.40;;;11.60;;
12601;SDS011;30282;16.436;99.370;2023-05-07T01:53:01;14.40;;;11.70;;
12601;SDS011;30282;16.436;99.370;2023-05-07T01:55:31;16.07;;;11.23;;
12601;SDS011;30282;16.436;99.370;2023-05-07T01:58:02;18.77;;;10.07;;
12601;SDS011;30282;16.436;99.370;2023-05-07T02:00:31;13.00;;;11.00;;
12601;SDS011;30282;16.436;99.370;2023-05-07T02:03:01;14.23;;;10.80;;
12601;SDS011;30282;16.436;99.370;2023-05-07T02:05:30;18.83;;;10.63;;
12601;SDS011;30282;16.436;99.370;2023-05-07T02:08:01;15.50;;;11.37;;
12601;SDS011;30282;16.436;99.370;2023-05-07T02:10:40;15.80;;;11.40;;
12601;SDS011;30282;16.436;99.370;2023-05-07T02:13:09;21.00;;;11.57;;
12601;SDS011;30282;16.436;99.370;2023-05-07T02:15:39;12.00;;;10.50;;
12601;SDS011;30282;16.436;99.370;2023-05-07T02:18:08;13.10;;;10.43;;
12601;SDS011;30282;16.436;99.370;2023-05-07T02:20:37;16.87;;;11.23;;
12601;SDS011;30282;16.436;99.370;2023-05-07T02:23:08;26.20;;;11.20;;
12601;SDS011;30282;16.436;99.370;2023-05-07T02:25:38;20.47;;;11.13;;
12601;SDS011;30282;16.436;99.370;2023-05-07T02:28:07;15.03;;;11.20;;
12601;SDS011;30282;16.436;99.370;2023-05-07T02:30:44;11.67;;;9.70;;
12601;SDS011;30282;16.436;99.370;2023-05-07T02:33:16;18.03;;;10.67;;
12601;SDS011;30282;16.436;99.370;2023-05-07T02:35:45;20.93;;;10.87;;
12601;SDS011;30282;16.436;99.370;2023-05-07T02:38:16;13.00;;;10.83;;
12601;SDS011;30282;16.436;99.370;2023-05-07T02:40:46;13.20;;;10.83;;
12601;SDS011;30282;16.436;99.370;2023-05-07T02:46:02;15.10;;;10.53;;
12601;SDS011;30282;16.436;99.370;2023-05-07T02:48:32;11.90;;;10.40;;
12601;SDS011;30282;16.436;99.370;2023-05-07T02:51:01;14.90;;;10.30;;
12601;SDS011;30282;16.436;99.370;2023-05-07T02:53:33;19.77;;;10.50;;
12601;SDS011;30282;16.436;99.370;2023-05-07T02:56:02;13.30;;;9.93;;
12601;SDS011;30282;16.436;99.370;2023-05-07T02:58:32;14.07;;;10.20;;
12601;SDS011;30282;16.436;99.370;2023-05-07T03:01:01;19.33;;;11.53;;
12601;SDS011;30282;16.436;99.370;2023-05-07T03:03:31;18.07;;;11.87;;
12601;SDS011;30282;16.436;99.370;2023-05-07T03:06:00;17.33;;;9.40;;
12601;SDS011;30282;16.436;99.370;2023-05-07T03:08:30;24.07;;;10.30;;
12601;SDS011;30282;16.436;99.370;2023-05-07T03:11:18;14.27;;;10.50;;
12601;SDS011;30282;16.436;99.370;2023-05-07T03:14:09;13.93;;;9.97;;
12601;SDS011;30282;16.436;99.370;2023-05-07T03:16:39;15.70;;;11.23;;
12601;SDS011;30282;16.436;99.370;2023-05-07T03:19:08;20.67;;;10.70;;
12601;SDS011;30282;16.436;99.370;2023-05-07T03:21:38;16.30;;;11.03;;
12601;SDS011;30282;16.436;99.370;2023-05-07T03:24:09;12.37;;;10.23;;
12601;SDS011;30282;16.436;99.370;2023-05-07T03:26:41;16.20;;;9.97;;
12601;SDS011;30282;16.436;99.370;2023-05-07T03:29:23;15.50;;;10.20;;
12601;SDS011;30282;16.436;99.370;2023-05-07T03:31:52;17.03;;;11.00;;
12601;SDS011;30282;16.436;99.370;2023-05-07T03:34:22;15.60;;;10.70;;
12601;SDS011;30282;16.436;99.370;2023-05-07T03:36:51;12.10;;;10.00;;
12601;SDS011;30282;16.436;99.370;2023-05-07T03:39:24;14.73;;;9.93;;
12601;SDS011;30282;16.436;99.370;2023-05-07T03:41:53;14.00;;;10.07;;
12601;SDS011;30282;16.436;99.370;2023-05-07T03:44:22;12.13;;;10.03;;
12601;SDS011;30282;16.436;99.370;2023-05-07T03:46:52;14.00;;;10.40;;
12601;SDS011;30282;16.436;99.370;2023-05-07T03:49:21;15.00;;;10.30;;
12601;SDS011;30282;16.436;99.370;2023-05-07T03:51:50;14.60;;;10.13;;
12601;SDS011;30282;16.436;99.370;2023-05-07T03:54:20;11.00;;;9.80;;
12601;SDS011;30282;16.436;99.370;2023-05-07T03:56:51;12.57;;;9.63;;
12601;SDS011;30282;16.436;99.370;2023-05-07T03:59:20;16.17;;;9.47;;
12601;SDS011;30282;16.436;99.370;2023-05-07T04:01:50;12.10;;;9.07;;
12601;SDS011;30282;16.436;99.370;2023-05-07T04:04:19;15.17;;;10.43;;
12601;SDS011;30282;16.436;99.370;2023-05-07T04:06:48;16.27;;;9.13;;
12601;SDS011;30282;16.436;99.370;2023-05-07T04:09:18;11.33;;;9.40;;
12601;SDS011;30282;16.436;99.370;2023-05-07T04:11:49;24.33;;;9.40;;
12601;SDS011;30282;16.436;99.370;2023-05-07T04:14:18;10.57;;;8.50;;
12601;SDS011;30282;16.436;99.370;2023-05-07T04:16:47;16.93;;;9.43;;
12601;SDS011;30282;16.436;99.370;2023-05-07T04:19:17;10.77;;;8.63;;
12601;SDS011;30282;16.436;99.370;2023-05-07T04:21:46;16.67;;;8.80;;
12601;SDS011;30282;16.436;99.370;2023-05-07T04:24:15;9.50;;;8.33;;
12601;SDS011;30282;16.436;99.370;2023-05-07T04:26:45;15.20;;;12.63;;
12601;SDS011;30282;16.436;99.370;2023-05-07T04:29:16;12.77;;;9.80;;
12601;SDS011;30282;16.436;99.370;2023-05-07T04:31:45;9.90;;;8.17;;
12601;SDS011;30282;16.436;99.370;2023-05-07T04:34:14;12.20;;;8.30;;
12601;SDS011;30282;16.436;99.370;2023-05-07T04:36:44;11.80;;;9.67;;
12601;SDS011;30282;16.436;99.370;2023-05-07T04:39:14;13.90;;;8.57;;
12601;SDS011;30282;16.436;99.370;2023-05-07T04:41:46;11.40;;;8.50;;
12601;SDS011;30282;16.436;99.370;2023-05-07T04:44:17;10.40;;;8.83;;
12601;SDS011;30282;16.436;99.370;2023-05-07T04:46:46;13.83;;;8.60;;
12601;SDS011;30282;16.436;99.370;2023-05-07T04:49:15;11.43;;;8.20;;
12601;SDS011;30282;16.436;99.370;2023-05-07T04:51:45;9.57;;;8.17;;
12601;SDS011;30282;16.436;99.370;2023-05-07T04:54:14;12.97;;;8.90;;
12601;SDS011;30282;16.436;99.370;2023-05-07T04:56:43;11.87;;;7.63;;
12601;SDS011;30282;16.436;99.370;2023-05-07T04:59:13;8.37;;;7.53;;
12601;SDS011;30282;16.436;99.370;2023-05-07T05:01:44;10.30;;;7.40;;
12601;SDS011;30282;16.436;99.370;2023-05-07T05:04:13;8.20;;;7.23;;
12601;SDS011;30282;16.436;99.370;2023-05-07T05:06:43;8.80;;;7.90;;
12601;SDS011;30282;16.436;99.370;2023-05-07T05:09:12;9.37;;;7.80;;
12601;SDS011;30282;16.436;99.370;2023-05-07T05:11:44;11.07;;;7.90;;
12601;SDS011;30282;16.436;99.370;2023-05-07T05:14:13;8.93;;;8.00;;
12601;SDS011;30282;16.436;99.370;2023-05-07T05:16:44;9.90;;;7.20;;
12601;SDS011;30282;16.436;99.370;2023-05-07T05:19:13;9.00;;;7.30;;
12601;SDS011;30282;16.436;99.370;2023-05-07T05:21:43;11.53;;;7.93;;
12601;SDS011;30282;16.436;99.370;2023-05-07T05:24:12;13.40;;;7.63;;
12601;SDS011;30282;16.436;99.370;2023-05-07T05:26:41;8.07;;;7.20;;
12601;SDS011;30282;16.436;99.370;2023-05-07T05:29:11;8.90;;;7.57;;
12601;SDS011;30282;16.436;99.370;2023-05-07T05:31:40;7.70;;;6.90;;
12601;SDS011;30282;16.436;99.370;2023-05-07T05:34:11;11.60;;;7.60;;
12601;SDS011;30282;16.436;99.370;2023-05-07T05:36:43;12.20;;;7.30;;
12601;SDS011;30282;16.436;99.370;2023-05-07T05:39:15;10.73;;;6.97;;
12601;SDS011;30282;16.436;99.370;2023-05-07T05:41:48;11.40;;;7.57;;
12601;SDS011;30282;16.436;99.370;2023-05-07T05:44:18;14.93;;;7.60;;
12601;SDS011;30282;16.436;99.370;2023-05-07T05:46:47;10.80;;;7.20;;
12601;SDS011;30282;16.436;99.370;2023-05-07T05:49:18;8.80;;;7.90;;
12601;SDS011;30282;16.436;99.370;2023-05-07T05:51:48;10.10;;;7.20;;
12601;SDS011;30282;16.436;99.370;2023-05-07T05:54:17;10.43;;;7.13;;
12601;SDS011;30282;16.436;99.370;2023-05-07T05:56:46;9.57;;;7.33;;
12601;SDS011;30282;16.436;99.370;2023-05-07T05:59:16;8.80;;;7.80;;
12601;SDS011;30282;16.436;99.370;2023-05-07T06:01:48;11.63;;;7.27;;
12601;SDS011;30282;16.436;99.370;2023-05-07T06:04:20;13.43;;;8.20;;
12601;SDS011;30282;16.436;99.370;2023-05-07T06:06:52;8.40;;;7.50;;
12601;SDS011;30282;16.436;99.370;2023-05-07T06:09:22;10.53;;;7.50;;
12601;SDS011;30282;16.436;99.370;2023-05-07T06:11:51;9.13;;;7.57;;
12601;SDS011;30282;16.436;99.370;2023-05-07T06:14:21;9.10;;;6.83;;
12601;SDS011;30282;16.436;99.370;2023-05-07T06:16:50;9.07;;;7.00;;
12601;SDS011;30282;16.436;99.370;2023-05-07T06:19:21;8.47;;;7.23;;
12601;SDS011;30282;16.436;99.370;2023-05-07T06:21:52;9.90;;;7.67;;
12601;SDS011;30282;16.436;99.370;2023-05-07T06:24:22;27.97;;;7.73;;
12601;SDS011;30282;16.436;99.370;2023-05-07T06:26:52;12.03;;;7.80;;
12601;SDS011;30282;16.436;99.370;2023-05-07T06:29:21;13.03;;;7.73;;
12601;SDS011;30282;16.436;99.370;2023-05-07T06:31:51;10.43;;;6.77;;
12601;SDS011;30282;16.436;99.370;2023-05-07T06:34:23;9.00;;;7.47;;
12601;SDS011;30282;16.436;99.370;2023-05-07T06:36:52;7.73;;;7.00;;
12601;SDS011;30282;16.436;99.370;2023-05-07T06:39:22;9.60;;;7.10;;
12601;SDS011;30282;16.436;99.370;2023-05-07T06:41:51;15.33;;;7.13;;
12601;SDS011;30282;16.436;99.370;2023-05-07T06:44:20;14.03;;;7.13;;
12601;SDS011;30282;16.436;99.370;2023-05-07T06:46:50;10.30;;;7.57;;
12601;SDS011;30282;16.436;99.370;2023-05-07T06:49:19;7.57;;;6.63;;
12601;SDS011;30282;16.436;99.370;2023-05-07T06:51:50;8.60;;;7.70;;
12601;SDS011;30282;16.436;99.370;2023-05-07T06:54:20;12.00;;;8.17;;
12601;SDS011;30282;16.436;99.370;2023-05-07T06:56:50;13.33;;;7.87;;
12601;SDS011;30282;16.436;99.370;2023-05-07T06:59:23;10.30;;;7.60;;
12601;SDS011;30282;16.436;99.370;2023-05-07T07:01:55;10.70;;;6.70;;
12601;SDS011;30282;16.436;99.370;2023-05-07T07:04:24;10.93;;;8.07;;
12601;SDS011;30282;16.436;99.370;2023-05-07T07:06:56;13.23;;;6.70;;
12601;SDS011;30282;16.436;99.370;2023-05-07T07:09:25;12.33;;;6.80;;
12601;SDS011;30282;16.436;99.370;2023-05-07T07:11:54;12.30;;;7.30;;
12601;SDS011;30282;16.436;99.370;2023-05-07T07:14:24;7.60;;;6.80;;
12601;SDS011;30282;16.436;99.370;2023-05-07T07:16:53;8.50;;;7.10;;
12601;SDS011;30282;16.436;99.370;2023-05-07T07:19:22;9.90;;;6.50;;
12601;SDS011;30282;16.436;99.370;2023-05-07T07:21:52;7.67;;;6.47;;
12601;SDS011;30282;16.436;99.370;2023-05-07T07:24:26;9.23;;;7.50;;
12601;SDS011;30282;16.436;99.370;2023-05-07T07:26:56;15.63;;;7.10;;
12601;SDS011;30282;16.436;99.370;2023-05-07T07:29:28;12.27;;;8.10;;
12601;SDS011;30282;16.436;99.370;2023-05-07T07:31:57;7.53;;;6.23;;
12601;SDS011;30282;16.436;99.370;2023-05-07T07:34:29;8.90;;;6.90;;
12601;SDS011;30282;16.436;99.370;2023-05-07T07:37:00;11.47;;;6.93;;
12601;SDS011;30282;16.436;99.370;2023-05-07T07:39:31;14.03;;;7.23;;
12601;SDS011;30282;16.436;99.370;2023-05-07T07:42:04;15.97;;;7.63;;
12601;SDS011;30282;16.436;99.370;2023-05-07T07:44:35;13.93;;;7.50;;
12601;SDS011;30282;16.436;99.370;2023-05-07T07:47:10;14.03;;;7.70;;
12601;SDS011;30282;16.436;99.370;2023-05-07T07:49:40;9.00;;;6.87;;
12601;SDS011;30282;16.436;99.370;2023-05-07T07:52:13;9.07;;;6.70;;
12601;SDS011;30282;16.436;99.370;2023-05-07T07:54:43;11.60;;;7.53;;
12601;SDS011;30282;16.436;99.370;2023-05-07T07:57:13;11.63;;;7.43;;
12601;SDS011;30282;16.436;99.370;2023-05-07T07:59:42;14.33;;;7.80;;
12601;SDS011;30282;16.436;99.370;2023-05-07T08:02:12;8.90;;;6.93;;
12601;SDS011;30282;16.436;99.370;2023-05-07T08:04:41;8.90;;;8.00;;
12601;SDS011;30282;16.436;99.370;2023-05-07T08:07:10;10.27;;;7.03;;
12601;SDS011;30282;16.436;99.370;2023-05-07T08:09:44;8.90;;;7.13;;
12601;SDS011;30282;16.436;99.370;2023-05-07T08:12:13;11.30;;;7.70;;
12601;SDS011;30282;16.436;99.370;2023-05-07T08:14:43;11.10;;;7.70;;
12601;SDS011;30282;16.436;99.370;2023-05-07T08:17:12;9.30;;;6.50;;
12601;SDS011;30282;16.436;99.370;2023-05-07T08:19:42;17.53;;;8.90;;
12601;SDS011;30282;16.436;99.370;2023-05-07T08:22:16;11.63;;;7.70;;
12601;SDS011;30282;16.436;99.370;2023-05-07T08:24:45;9.10;;;7.50;;
12601;SDS011;30282;16.436;99.370;2023-05-07T08:27:14;8.27;;;7.47;;
12601;SDS011;30282;16.436;99.370;2023-05-07T08:29:44;9.67;;;7.50;;
12601;SDS011;30282;16.436;99.370;2023-05-07T08:32:14;13.33;;;8.03;;
12601;SDS011;30282;16.436;99.370;2023-05-07T08:34:44;16.73;;;7.97;;
12601;SDS011;30282;16.436;99.370;2023-05-07T08:37:13;13.77;;;8.10;;
12601;SDS011;30282;16.436;99.370;2023-05-07T08:39:44;13.70;;;8.03;;
12601;SDS011;30282;16.436;99.370;2023-05-07T08:42:13;21.17;;;8.70;;
12601;SDS011;30282;16.436;99.370;2023-05-07T08:44:45;19.07;;;10.30;;
12601;SDS011;30282;16.436;99.370;2023-05-07T08:47:15;25.43;;;8.70;;
12601;SDS011;30282;16.436;99.370;2023-05-07T08:49:45;8.17;;;7.30;;
12601;SDS011;30282;16.436;99.370;2023-05-07T08:52:17;9.00;;;7.10;;
12601;SDS011;30282;16.436;99.370;2023-05-07T08:54:47;26.13;;;9.97;;
12601;SDS011;30282;16.436;99.370;2023-05-07T08:57:16;16.67;;;8.73;;
12601;SDS011;30282;16.436;99.370;2023-05-07T08:59:47;13.40;;;8.60;;
12601;SDS011;30282;16.436;99.370;2023-05-07T09:02:16;12.40;;;8.07;;
12601;SDS011;30282;16.436;99.370;2023-05-07T09:04:46;14.97;;;7.40;;
12601;SDS011;30282;16.436;99.370;2023-05-07T09:07:15;13.40;;;9.20;;
12601;SDS011;30282;16.436;99.370;2023-05-07T09:09:47;13.13;;;8.97;;
12601;SDS011;30282;16.436;99.370;2023-05-07T09:12:17;12.63;;;8.57;;
12601;SDS011;30282;16.436;99.370;2023-05-07T09:14:46;20.60;;;8.53;;
12601;SDS011;30282;16.436;99.370;2023-05-07T09:17:16;11.50;;;9.90;;
12601;SDS011;30282;16.436;99.370;2023-05-07T09:19:46;10.07;;;9.07;;
12601;SDS011;30282;16.436;99.370;2023-05-07T09:22:15;21.90;;;9.33;;
12601;SDS011;30282;16.436;99.370;2023-05-07T09:24:47;17.50;;;9.43;;
12601;SDS011;30282;16.436;99.370;2023-05-07T09:27:17;14.30;;;9.23;;
12601;SDS011;30282;16.436;99.370;2023-05-07T09:29:47;22.23;;;9.90;;
12601;SDS011;30282;16.436;99.370;2023-05-07T09:32:16;10.40;;;9.30;;
12601;SDS011;30282;16.436;99.370;2023-05-07T09:34:48;17.50;;;9.20;;
12601;SDS011;30282;16.436;99.370;2023-05-07T09:37:19;22.60;;;10.00;;
12601;SDS011;30282;16.436;99.370;2023-05-07T09:39:49;12.20;;;9.73;;
12601;SDS011;30282;16.436;99.370;2023-05-07T09:42:22;23.97;;;9.77;;
12601;SDS011;30282;16.436;99.370;2023-05-07T09:44:52;15.90;;;10.60;;
12601;SDS011;30282;16.436;99.370;2023-05-07T09:47:23;18.10;;;10.37;;
12601;SDS011;30282;16.436;99.370;2023-05-07T09:49:57;11.70;;;9.77;;
12601;SDS011;30282;16.436;99.370;2023-05-07T09:52:33;24.30;;;11.00;;
12601;SDS011;30282;16.436;99.370;2023-05-07T09:55:04;13.77;;;10.10;;
12601;SDS011;30282;16.436;99.370;2023-05-07T09:57:34;42.60;;;11.10;;
12601;SDS011;30282;16.436;99.370;2023-05-07T10:00:04;26.63;;;10.33;;
12601;SDS011;30282;16.436;99.370;2023-05-07T10:02:36;12.90;;;9.40;;
12601;SDS011;30282;16.436;99.370;2023-05-07T10:05:12;16.20;;;10.17;;
12601;SDS011;30282;16.436;99.370;2023-05-07T10:07:44;16.47;;;10.27;;
12601;SDS011;30282;16.436;99.370;2023-05-07T10:10:14;11.10;;;9.00;;
12601;SDS011;30282;16.436;99.370;2023-05-07T10:12:44;18.90;;;10.20;;
12601;SDS011;30282;16.436;99.370;2023-05-07T10:15:14;22.37;;;9.93;;
12601;SDS011;30282;16.436;99.370;2023-05-07T10:17:43;15.53;;;9.30;;
12601;SDS011;30282;16.436;99.370;2023-05-07T10:20:14;18.37;;;9.77;;
12601;SDS011;30282;16.436;99.370;2023-05-07T10:22:48;25.60;;;9.50;;
12601;SDS011;30282;16.436;99.370;2023-05-07T10:25:20;17.17;;;9.90;;
12601;SDS011;30282;16.436;99.370;2023-05-07T10:27:51;29.47;;;9.30;;
12601;SDS011;30282;16.436;99.370;2023-05-07T10:30:23;17.00;;;9.40;;
12601;SDS011;30282;16.436;99.370;2023-05-07T10:32:59;20.00;;;11.17;;
12601;SDS011;30282;16.436;99.370;2023-05-07T10:35:41;12.03;;;8.83;;
12601;SDS011;30282;16.436;99.370;2023-05-07T10:38:14;16.40;;;9.80;;
12601;SDS011;30282;16.436;99.370;2023-05-07T10:40:44;19.20;;;10.00;;
12601;SDS011;30282;16.436;99.370;2023-05-07T10:43:13;13.67;;;9.20;;
12601;SDS011;30282;16.436;99.370;2023-05-07T10:45:43;18.60;;;10.50;;
12601;SDS011;30282;16.436;99.370;2023-05-07T10:48:33;15.70;;;10.80;;
12601;SDS011;30282;16.436;99.370;2023-05-07T10:51:22;15.20;;;11.40;;
12601;SDS011;30282;16.436;99.370;2023-05-07T10:56:51;16.10;;;11.60;;
12601;SDS011;30282;16.436;99.370;2023-05-07T10:59:38;16.83;;;10.67;;
12601;SDS011;30282;16.436;99.370;2023-05-07T11:02:11;11.40;;;10.20;;
12601;SDS011;30282;16.436;99.370;2023-05-07T11:04:41;17.83;;;11.60;;
12601;SDS011;30282;16.436;99.370;2023-05-07T11:07:23;15.47;;;10.63;;
12601;SDS011;30282;16.436;99.370;2023-05-07T11:10:00;17.77;;;10.90;;
12601;SDS011;30282;16.436;99.370;2023-05-07T11:12:49;80.70;;;59.90;;
12601;SDS011;30282;16.436;99.370;2023-05-07T11:15:38;76.43;;;59.77;;
12601;SDS011;30282;16.436;99.370;2023-05-07T11:18:12;20.10;;;14.43;;
12601;SDS011;30282;16.436;99.370;2023-05-07T11:20:52;16.33;;;12.63;;
12601;SDS011;30282;16.436;99.370;2023-05-07T11:26:29;20.67;;;12.50;;
12601;SDS011;30282;16.436;99.370;2023-05-07T11:29:10;16.40;;;11.00;;
12601;SDS011;30282;16.436;99.370;2023-05-07T11:31:40;18.17;;;12.33;;
12601;SDS011;30282;16.436;99.370;2023-05-07T11:34:12;20.70;;;13.70;;
12601;SDS011;30282;16.436;99.370;2023-05-07T11:36:42;20.57;;;16.80;;
12601;SDS011;30282;16.436;99.370;2023-05-07T11:39:23;23.17;;;13.83;;
12601;SDS011;30282;16.436;99.370;2023-05-07T11:41:59;17.00;;;13.13;;
12601;SDS011;30282;16.436;99.370;2023-05-07T11:44:40;12.47;;;11.27;;
12601;SDS011;30282;16.436;99.370;2023-05-07T11:47:11;17.93;;;13.10;;
12601;SDS011;30282;16.436;99.370;2023-05-07T11:49:46;20.57;;;13.90;;
12601;SDS011;30282;16.436;99.370;2023-05-07T11:52:16;19.97;;;12.30;;
12601;SDS011;30282;16.436;99.370;2023-05-07T11:54:48;15.33;;;12.93;;
12601;SDS011;30282;16.436;99.370;2023-05-07T11:57:23;18.17;;;11.97;;
12601;SDS011;30282;16.436;99.370;2023-05-07T11:59:53;14.73;;;12.13;;
12601;SDS011;30282;16.436;99.370;2023-05-07T12:02:22;26.40;;;13.00;;
12601;SDS011;30282;16.436;99.370;2023-05-07T12:04:52;24.37;;;12.93;;
12601;SDS011;30282;16.436;99.370;2023-05-07T12:07:23;19.33;;;11.97;;
12601;SDS011;30282;16.436;99.370;2023-05-07T12:09:53;27.60;;;12.17;;
12601;SDS011;30282;16.436;99.370;2023-05-07T12:12:24;24.97;;;12.90;;
12601;SDS011;30282;16.436;99.370;2023-05-07T12:14:54;17.27;;;12.27;;
12601;SDS011;30282;16.436;99.370;2023-05-07T12:17:26;15.57;;;12.40;;
12601;SDS011;30282;16.436;99.370;2023-05-07T12:19:55;16.83;;;12.03;;
12601;SDS011;30282;16.436;99.370;2023-05-07T12:22:25;26.13;;;12.47;;
12601;SDS011;30282;16.436;99.370;2023-05-07T12:24:56;18.90;;;12.37;;
12601;SDS011;30282;16.436;99.370;2023-05-07T12:27:28;22.63;;;11.53;;
12601;SDS011;30282;16.436;99.370;2023-05-07T12:29:58;17.67;;;12.97;;
12601;SDS011;30282;16.436;99.370;2023-05-07T12:32:27;14.67;;;11.90;;
12601;SDS011;30282;16.436;99.370;2023-05-07T12:34:56;22.00;;;12.73;;
12601;SDS011;30282;16.436;99.370;2023-05-07T12:37:25;17.17;;;13.10;;
12601;SDS011;30282;16.436;99.370;2023-05-07T12:40:04;13.93;;;12.50;;
12601;SDS011;30282;16.436;99.370;2023-05-07T12:42:37;22.20;;;13.37;;
12601;SDS011;30282;16.436;99.370;2023-05-07T12:45:09;14.83;;;12.73;;
12601;SDS011;30282;16.436;99.370;2023-05-07T12:47:43;19.27;;;12.73;;
12601;SDS011;30282;16.436;99.370;2023-05-07T12:50:12;15.70;;;11.80;;
12601;SDS011;30282;16.436;99.370;2023-05-07T12:52:43;27.13;;;14.03;;
12601;SDS011;30282;16.436;99.370;2023-05-07T12:55:14;21.00;;;14.93;;
12601;SDS011;30282;16.436;99.370;2023-05-07T12:57:45;15.10;;;13.50;;
12601;SDS011;30282;16.436;99.370;2023-05-07T13:00:17;16.77;;;12.87;;
12601;SDS011;30282;16.436;99.370;2023-05-07T13:03:00;15.27;;;12.10;;
12601;SDS011;30282;16.436;99.370;2023-05-07T13:05:29;16.00;;;12.50;;
12601;SDS011;30282;16.436;99.370;2023-05-07T13:07:59;15.27;;;12.80;;
12601;SDS011;30282;16.436;99.370;2023-05-07T13:10:28;16.47;;;12.37;;
12601;SDS011;30282;16.436;99.370;2023-05-07T13:13:00;14.70;;;12.20;;
12601;SDS011;30282;16.436;99.370;2023-05-07T13:15:29;21.57;;;12.13;;
12601;SDS011;30282;16.436;99.370;2023-05-07T13:17:58;21.60;;;13.47;;
12601;SDS011;30282;16.436;99.370;2023-05-07T13:20:30;17.87;;;11.63;;
12601;SDS011;30282;16.436;99.370;2023-05-07T13:22:59;17.10;;;12.33;;
12601;SDS011;30282;16.436;99.370;2023-05-07T13:25:30;16.73;;;11.87;;
12601;SDS011;30282;16.436;99.370;2023-05-07T13:28:03;15.53;;;11.83;;
12601;SDS011;30282;16.436;99.370;2023-05-07T13:30:35;15.67;;;12.70;;
12601;SDS011;30282;16.436;99.370;2023-05-07T13:33:04;14.37;;;12.00;;
12601;SDS011;30282;16.436;99.370;2023-05-07T13:35:34;16.60;;;12.60;;
12601;SDS011;30282;16.436;99.370;2023-05-07T13:38:03;18.30;;;13.20;;
12601;SDS011;30282;16.436;99.370;2023-05-07T13:40:33;31.20;;;14.30;;
12601;SDS011;30282;16.436;99.370;2023-05-07T13:43:05;16.60;;;12.27;;
12601;SDS011;30282;16.436;99.370;2023-05-07T13:45:34;39.80;;;15.77;;
12601;SDS011;30282;16.436;99.370;2023-05-07T13:48:04;29.70;;;16.80;;
12601;SDS011;30282;16.436;99.370;2023-05-07T13:50:34;26.03;;;16.60;;
12601;SDS011;30282;16.436;99.370;2023-05-07T13:53:03;22.43;;;17.30;;
12601;SDS011;30282;16.436;99.370;2023-05-07T13:55:32;22.30;;;15.63;;
12601;SDS011;30282;16.436;99.370;2023-05-07T13:58:02;29.97;;;16.47;;
12601;SDS011;30282;16.436;99.370;2023-05-07T14:00:33;24.90;;;19.60;;
12601;SDS011;30282;16.436;99.370;2023-05-07T14:03:02;24.87;;;18.60;;
12601;SDS011;30282;16.436;99.370;2023-05-07T14:05:33;30.57;;;18.50;;
12601;SDS011;30282;16.436;99.370;2023-05-07T14:08:02;24.90;;;19.50;;
12601;SDS011;30282;16.436;99.370;2023-05-07T14:10:35;22.20;;;17.63;;
12601;SDS011;30282;16.436;99.370;2023-05-07T14:13:09;25.87;;;19.47;;
12601;SDS011;30282;16.436;99.370;2023-05-07T14:15:43;28.87;;;19.00;;
12601;SDS011;30282;16.436;99.370;2023-05-07T14:18:14;36.53;;;20.40;;
12601;SDS011;30282;16.436;99.370;2023-05-07T14:20:44;26.00;;;19.10;;
12601;SDS011;30282;16.436;99.370;2023-05-07T14:23:14;27.03;;;17.90;;
12601;SDS011;30282;16.436;99.370;2023-05-07T14:25:45;27.43;;;17.00;;
12601;SDS011;30282;16.436;99.370;2023-05-07T14:28:16;20.70;;;16.17;;
12601;SDS011;30282;16.436;99.370;2023-05-07T14:30:48;24.77;;;16.60;;
12601;SDS011;30282;16.436;99.370;2023-05-07T14:33:18;23.90;;;17.93;;
12601;SDS011;30282;16.436;99.370;2023-05-07T14:35:47;24.23;;;15.87;;
12601;SDS011;30282;16.436;99.370;2023-05-07T14:38:16;20.40;;;14.93;;
12601;SDS011;30282;16.436;99.370;2023-05-07T14:40:46;18.10;;;14.83;;
12601;SDS011;30282;16.436;99.370;2023-05-07T14:43:17;20.73;;;14.87;;
12601;SDS011;30282;16.436;99.370;2023-05-07T14:45:46;22.63;;;16.03;;